Latest Coastal Weather Observations for Newcastle Nobbys

IDN60701

Issued at 4:11 pm EST Tuesday 4 August 2020 (issued every 10 minutes, with the page automatically refreshed every 10 minutes)

About coastal observations | Map of coastal stations | Coastal observations for NSW | Marine services | Other Formats
Station Details ID: 061055 Name: NEWCASTLE NOBBYS SIGNAL STATION AWS Lat: -32.92 Lon: 151.80 Height: 33.0 m
Data from the previous 72 hours. | See also: Recent months at Newcastle Nobbys
Date/Time
EST
Wind Sea
Height
m
Swell Vis
km
Cloud Weather Temp
°C
Press
hPa
Rain since
9am
mm
Dir  Spd
kts
Gust
kts
Height
m
Period
s
Dir
04/04:00pm NW 12 19 - - - - - - - 21.2 - 0.0
04/03:30pm NW 15 21 - - - - - - - 21.1 - 0.0
04/03:00pm NW 14 20 - - - - - - - 20.4 - 0.0
04/02:30pm NW 15 22 - - - - - - - 21.2 - 0.0
04/02:00pm NW 16 25 - - - - - - - 21.0 - 0.0
04/01:30pm NW 17 25 - - - - - - - 20.8 - 0.0
04/01:00pm WNW 20 29 - - - - - - - 20.9 - 0.0
04/12:34pm NW 16 27 - - - - - - - 20.5 - 0.0
04/12:30pm NW 13 20 - - - - - - - 20.5 - 0.0
04/12:00pm NW 16 20 - - - - - - - 20.1 - 0.0
04/11:30am NW 14 19 - - - - - - - 19.6 - 0.0
04/11:00am NW 12 17 - - - - - - - 18.7 - 0.0
04/10:30am NW 11 16 - - - - - - - 17.4 - 0.0
04/10:00am NW 13 17 - - - - - - - 16.3 - 0.0
04/09:30am NW 11 15 - - - - - - - 15.1 - 0.0
04/09:00am NW 9 13 - - - - - - - 13.3 - 0.0
04/08:30am NW 11 15 - - - - - - - 12.4 - 0.0
04/08:00am NNW 12 16 - - - - - - - 11.1 - 0.0
04/07:30am NNW 9 13 - - - - - - - 10.3 - 0.0
04/07:00am NW 8 11 - - - - - - - 9.7 - 0.0
04/06:30am NW 10 13 - - - - - - - 11.0 - 0.0
04/06:00am NNW 13 16 - - - - - - - 11.2 - 0.0
04/05:30am NW 14 16 - - - - - - - 11.9 - 0.0
04/05:00am NW 13 15 - - - - - - - 11.6 - 0.0
04/04:30am NW 13 16 - - - - - - - 11.6 - 0.0
04/04:00am NW 10 15 - - - - - - - 11.6 - 0.0
04/03:30am NW 10 13 - - - - - - - 11.6 - 0.0
04/03:00am NNW 11 14 - - - - - - - 12.0 - 0.0
04/02:30am NNW 8 11 - - - - - - - 12.5 - 0.0
04/02:00am NNW 9 11 - - - - - - - 12.6 - 0.0
04/01:30am NW 10 12 - - - - - - - 12.6 - 0.0
04/01:00am NNW 10 11 - - - - - - - 12.9 - 0.0
04/12:30am NNW 9 11 - - - - - - - 13.3 - 0.0
04/12:00am NW 8 10 - - - - - - - 13.3 - 0.0
 
Date/Time
EST
Wind Sea
Height
m
Swell Vis
km
Cloud Weather Temp
°C
Press
hPa
Rain since
9am
mm
Dir  Spd
kts
Gust
kts
Height
m
Period
s
Dir
03/11:30pm NW 9 12 - - - - - - - 13.9 - 0.0
03/11:00pm NW 9 11 - - - - - - - 14.1 - 0.0
03/10:30pm NW 7 9 - - - - - - - 14.2 - 0.0
03/10:00pm NW 6 8 - - - - - - - 14.6 - 0.0
03/09:30pm NW 7 9 - - - - - - - 15.2 - 0.0
03/09:00pm NW 8 9 - - - - - - - 15.7 - 0.0
03/08:30pm NW 8 10 - - - - - - - 15.8 - 0.0
03/08:00pm NNW 9 11 - - - - - - - 16.4 - 0.0
03/07:30pm NNW 9 10 - - - - - - - 16.1 - 0.0
03/07:00pm NNW 6 7 - - - - - - - 16.7 - 0.0
03/06:30pm NNW 8 10 - - - - - - - 17.3 - 0.0
03/06:00pm NNW 8 10 - - - - - - - 17.7 - 0.0
03/05:30pm NNW 9 12 - - - - - - - 18.2 - 0.0
03/05:00pm NNW 10 13 - - - - - - - 18.6 - 0.0
03/04:30pm NW 11 15 - - - - - - - 19.1 - 0.0
03/04:00pm NW 12 15 - - - - - - - 19.6 - 0.0
03/03:30pm NW 12 16 - - - - - - - 20.0 - 0.0
03/03:00pm NW 14 19 - - - - - - - 20.0 - 0.0
03/02:30pm NW 17 23 - - - - - - - 19.5 - 0.0
03/02:00pm NW 15 20 - - - - - - - 19.9 - 0.0
03/01:30pm NW 13 20 - - - - - - - 19.3 - 0.0
03/01:00pm NW 14 18 - - - - - - - 18.9 - 0.0
03/12:30pm NW 11 15 - - - - - - - 17.8 - 0.0
03/12:00pm NW 10 13 - - - - - - - 17.7 - 0.0
03/11:30am NW 9 14 - - - - - - - 16.9 - 0.0
03/11:00am NW 10 14 - - - - - - - 15.7 - 0.0
03/10:30am NW 11 14 - - - - - - - 13.8 - 0.0
03/10:00am NW 13 17 - - - - - - - 12.7 - 0.0
03/09:30am NW 13 16 - - - - - - - 12.4 - 0.0
03/09:00am NW 11 14 - - - - - - - 11.8 - 0.0
03/08:30am NW 11 15 - - - - - - - 10.0 - 0.0
03/08:00am NW 11 15 - - - - - - - 9.2 - 0.0
03/07:30am NW 12 16 - - - - - - - 9.0 - 0.0
03/07:00am NW 8 10 - - - - - - - 8.7 - 0.0
03/06:30am NW 12 14 - - - - - - - 8.5 - 0.0
03/06:00am NW 9 12 - - - - - - - 8.4 - 0.0
03/05:30am NW 7 10 - - - - - - - 8.6 - 0.0
03/05:00am NW 7 8 - - - - - - - 8.7 - 0.0
03/04:30am NW 7 9 - - - - - - - 9.0 - 0.0
03/04:00am NW 7 9 - - - - - - - 9.4 - 0.0
03/03:30am NW 7 9 - - - - - - - 10.0 - 0.0
03/03:00am NW 4 6 - - - - - - - 10.1 - 0.0
03/02:30am NW 5 8 - - - - - - - 10.5 - 0.0
03/02:00am NW 4 5 - - - - - - - 10.8 - 0.0
03/01:30am NW 6 7 - - - - - - - 11.0 - 0.0
03/01:00am NNW 3 5 - - - - - - - 11.5 - 0.0
03/12:30am NW 4 5 - - - - - - - 11.9 - 0.0
03/12:00am NW 3 4 - - - - - - - 12.4 - 0.0
 
Date/Time
EST
Wind Sea
Height
m
Swell Vis
km
Cloud Weather Temp
°C
Press
hPa
Rain since
9am
mm
Dir  Spd
kts
Gust
kts
Height
m
Period
s
Dir
02/11:30pm NNW 4 5 - - - - - - - 12.6 - 0.0
02/11:00pm N 3 4 - - - - - - - 12.9 - 0.0
02/10:30pm NNW 2 4 - - - - - - - 12.8 - 0.0
02/10:00pm NW 3 3 - - - - - - - 13.5 - 0.0
02/09:30pm NW 2 3 - - - - - - - 13.5 - 0.0
02/09:00pm N 3 4 - - - - - - - 14.3 - 0.0
02/08:30pm N 2 3 - - - - - - - 14.6 - 0.0
02/08:00pm NNE 4 6 - - - - - - - 14.9 - 0.0
02/07:30pm NE 5 7 - - - - - - - 15.4 - 0.0
02/07:00pm NE 8 9 - - - - - - - 15.8 - 0.0
02/06:30pm ENE 6 8 - - - - - - - 15.7 - 0.0
02/06:00pm E 5 5 - - - - - - - 15.7 - 0.0
02/05:30pm E 5 5 - - - - - - - 15.7 - 0.0
02/05:00pm ESE 5 5 - - - - - - - 16.0 - 0.0
02/04:30pm ESE 5 5 - - - - - - - 16.1 - 0.0
02/04:00pm ESE 5 6 - - - - - - - 16.7 - 0.0
02/03:30pm ESE 5 6 - - - - - - - 16.8 - 0.0
02/03:00pm SE 5 6 - - - - - - - 17.0 - 0.0
02/02:30pm SSE 6 7 - - - - - - - 16.9 - 0.0
02/02:00pm SSE 7 7 - - - - - - - 16.4 - 0.0
02/01:30pm S 6 7 - - - - - - - 17.0 - 0.0
02/01:00pm S 6 7 - - - - - - - 17.6 - 0.0
02/12:30pm WNW 6 9 - - - - - - - 19.2 - 0.0
02/12:00pm NNW 8 10 - - - - - - - 18.0 - 0.0
02/11:30am NW 7 10 - - - - - - - 17.0 - 0.0
02/11:00am NW 6 9 - - - - - - - 17.0 - 0.0
02/10:30am WNW 6 8 - - - - - - - 16.4 - 0.0
02/10:00am WNW 11 13 - - - - - - - 14.8 - 0.0
02/09:30am WNW 10 13 - - - - - - - 13.9 - 0.0
02/09:00am NW 7 9 - - - - - - - 12.6 - 0.0
02/08:30am NW 7 9 - - - - - - - 11.3 - 0.0
02/08:00am WNW 7 8 - - - - - - - 10.0 - 0.0
02/07:30am WNW 7 9 - - - - - - - 9.6 - 0.0
02/07:00am WNW 7 10 - - - - - - - 9.4 - 0.0
02/06:30am NW 5 7 - - - - - - - 8.5 - 0.0
02/06:00am NW 6 8 - - - - - - - 8.4 - 0.0
02/05:30am NW 10 12 - - - - - - - 8.5 - 0.0
02/05:00am NW 10 12 - - - - - - - 8.8 - 0.0
02/04:30am NW 10 12 - - - - - - - 9.0 - 0.0
02/04:00am NW 6 8 - - - - - - - 9.1 - 0.0
02/03:30am NW 9 11 - - - - - - - 9.3 - 0.0
02/03:00am NW 9 11 - - - - - - - 9.6 - 0.0
02/02:30am NW 9 11 - - - - - - - 9.8 - 0.0
02/02:00am NW 8 10 - - - - - - - 9.9 - 0.0
02/01:30am NW 8 9 - - - - - - - 10.4 - 0.0
02/01:00am NW 4 7 - - - - - - - 10.3 - 0.0
02/12:30am NNW 6 8 - - - - - - - 10.8 - 0.0
02/12:00am NW 9 11 - - - - - - - 11.2 - 0.0
 
Date/Time
EST
Wind Sea
Height
m
Swell Vis
km
Cloud Weather Temp
°C
Press
hPa
Rain since
9am
mm
Dir  Spd
kts
Gust
kts
Height
m
Period
s
Dir
01/11:30pm NNW 5 9 - - - - - - - 11.4 - 0.0
01/11:00pm NW 5 6 - - - - - - - 11.8 - 0.0
01/10:30pm NNW 7 8 - - - - - - - 11.9 - 0.0
01/10:00pm NNW 7 8 - - - - - - - 13.4 - 0.0
01/09:30pm NNW 3 6 - - - - - - - 13.5 - 0.0
01/09:00pm NNE 8 9 - - - - - - - 14.1 - 0.0
01/08:30pm NE 6 10 - - - - - - - 14.7 - 0.0
01/08:00pm NE 6 10 - - - - - - - 14.9 - 0.0
01/07:30pm NE 6 9 - - - - - - - 15.2 - 0.0
01/07:00pm NE 7 9 - - - - - - - 15.5 - 0.0
01/06:30pm NE 9 11 - - - - - - - 15.3 - 0.0
01/06:00pm NE 6 9 - - - - - - - 15.2 - 0.0
01/05:30pm NE 7 9 - - - - - - - 15.3 - 0.0
01/05:00pm NNE 5 7 - - - - - - - 16.4 - 0.0
01/04:30pm N 7 9 - - - - - - - 17.2 - 0.0

Other formats

Comma delimited format used in spreadsheet applications
http://www.bom.gov.au/fwo/IDN60701/IDN60701.94774.axf

JavaScript Object Notation format (JSON) in row-major order
http://www.bom.gov.au/fwo/IDN60701/IDN60701.94774.json

Data quality

Most of these data are generated automatically and are frequently updated. Quality checks on data are not normally performed. It is possible for incorrect values to appear. Refer to information at About Latest Weather Observations and please check the disclaimer before using these data.